createdAt,value
2023-02-11T00:01:23.815Z,99586.16
2023-02-11T00:05:26.959Z,99588.78
2023-02-11T00:09:31.907Z,99594.00
2023-02-11T00:13:36.807Z,99583.94
2023-02-11T00:17:40.403Z,99584.97
2023-02-11T00:21:43.843Z,99593.69
2023-02-11T00:25:49.503Z,99590.53
2023-02-11T00:29:54.273Z,99587.38
2023-02-11T00:33:57.244Z,99585.94
2023-02-11T00:38:00.744Z,99577.66
2023-02-11T00:42:03.669Z,99578.72
2023-02-11T00:46:08.769Z,99574.56
2023-02-11T00:50:11.805Z,99574.50
2023-02-11T00:54:15.482Z,99569.25
2023-02-11T00:58:18.856Z,99581.03
2023-02-11T01:02:23.746Z,99585.16
2023-02-11T01:06:26.945Z,99579.84
2023-02-11T01:10:30.265Z,99579.69
2023-02-11T01:14:33.151Z,99577.72
2023-02-11T01:18:38.480Z,99574.84
2023-02-11T01:22:42.260Z,99572.88
2023-02-11T01:26:45.729Z,99565.81
2023-02-11T01:30:49.150Z,99568.09
2023-02-11T01:34:53.955Z,99563.53
2023-02-11T01:38:57.208Z,99562.50
2023-02-11T01:43:00.593Z,99549.50
2023-02-11T01:47:06.882Z,99546.81
2023-02-11T01:51:16.599Z,99543.16
2023-02-11T01:55:37.048Z,99544.59
2023-02-11T01:59:45.591Z,99542.59
2023-02-11T02:03:52.107Z,99543.25
2023-02-11T02:08:04.778Z,99535.41
2023-02-11T02:12:07.537Z,99531.81
2023-02-11T02:16:13.919Z,99531.63
2023-02-11T02:20:40.537Z,99533.28
2023-02-11T02:25:01.325Z,99537.47
2023-02-11T02:29:32.710Z,99539.09
2023-02-11T02:33:47.301Z,99539.97
2023-02-11T02:37:55.502Z,99532.34
2023-02-11T02:41:59.455Z,99511.31
2023-02-11T02:46:13.360Z,99513.97
2023-02-11T02:50:25.480Z,99501.44
2023-02-11T02:54:59.108Z,99501.69
2023-02-11T02:59:24.905Z,99505.22
2023-02-11T03:03:37.695Z,99488.38
2023-02-11T03:07:47.740Z,99497.56
2023-02-11T03:11:51.226Z,99491.72
2023-02-11T03:15:58.641Z,99501.19
2023-02-11T03:20:04.671Z,99486.66
2023-02-11T03:24:12.058Z,99485.75
2023-02-11T03:28:23.923Z,99486.59
2023-02-11T03:32:30.485Z,99480.53
2023-02-11T03:36:41.156Z,99484.66
2023-02-11T03:40:47.391Z,99470.94
2023-02-11T03:44:57.873Z,99464.00
2023-02-11T03:49:05.918Z,99465.56
2023-02-11T03:53:09.694Z,99469.03
2023-02-11T03:57:14.529Z,99459.63
2023-02-11T04:01:18.140Z,99461.44
2023-02-11T04:05:21.599Z,99446.97
2023-02-11T04:09:24.793Z,99452.09
2023-02-11T04:13:29.573Z,99440.19
2023-02-11T04:17:32.641Z,99448.03
2023-02-11T04:21:36.080Z,99460.09
2023-02-11T04:25:39.069Z,99456.84
2023-02-11T04:29:44.238Z,99462.06
2023-02-11T04:33:47.177Z,99461.47
2023-02-11T04:37:50.600Z,99455.78
2023-02-11T04:41:53.681Z,99459.41
2023-02-11T04:46:00.257Z,99456.97
2023-02-11T04:50:03.298Z,99460.50
2023-02-11T04:54:06.690Z,99453.00
2023-02-11T04:58:09.627Z,99466.50
2023-02-11T05:02:15.735Z,99475.78
2023-02-11T05:06:19.859Z,99485.09
2023-02-11T05:10:23.156Z,99479.00
2023-02-11T05:14:26.432Z,99485.84
2023-02-11T05:18:30.805Z,99488.44
2023-02-11T05:22:34.288Z,99471.38
2023-02-11T05:26:37.706Z,99472.13
2023-02-11T05:30:41.190Z,99471.16
2023-02-11T05:34:46.134Z,99474.19
2023-02-11T05:38:51.140Z,99473.84
2023-02-11T05:42:54.359Z,99455.66
2023-02-11T05:46:57.682Z,99449.63
2023-02-11T05:51:02.317Z,99462.44
2023-02-11T05:55:05.755Z,99458.16
2023-02-11T05:59:08.950Z,99453.00
2023-02-11T06:03:12.123Z,99462.53
2023-02-11T06:07:17.530Z,99459.84
2023-02-11T06:11:20.803Z,99471.03
2023-02-11T06:15:23.830Z,99460.09
2023-02-11T06:19:27.132Z,99464.50
2023-02-11T06:23:32.359Z,99454.28
2023-02-11T06:27:36.116Z,99452.75
2023-02-11T06:31:39.912Z,99436.50
2023-02-11T06:35:43.204Z,99433.91
2023-02-11T06:39:48.310Z,99440.28
2023-02-11T06:43:51.478Z,99434.94
2023-02-11T06:47:55.072Z,99434.63
2023-02-11T06:51:58.469Z,99430.00
2023-02-11T06:56:07.314Z,99436.47
2023-02-11T07:00:12.083Z,99450.72
2023-02-11T07:04:16.061Z,99435.94
2023-02-11T07:08:19.433Z,99447.28
2023-02-11T07:12:23.720Z,99456.97
2023-02-11T07:16:27.037Z,99457.44
2023-02-11T07:20:30.225Z,99452.72
2023-02-11T07:24:34.034Z,99457.41
2023-02-11T07:28:41.203Z,99450.91
2023-02-11T07:32:44.145Z,99453.09
2023-02-11T07:36:49.452Z,99440.69
2023-02-11T07:40:52.290Z,99432.00
2023-02-11T07:44:56.962Z,99432.59
2023-02-11T07:49:00.430Z,99455.34
2023-02-11T07:53:04.032Z,99468.69
2023-02-11T07:57:07.119Z,99477.72
2023-02-11T08:01:13.897Z,99466.22
2023-02-11T08:05:16.854Z,99475.28
2023-02-11T08:09:20.656Z,99456.00
2023-02-11T08:13:23.567Z,99446.25
2023-02-11T08:17:28.473Z,99440.84
2023-02-11T08:21:33.156Z,99432.91
2023-02-11T08:25:36.653Z,99433.63
2023-02-11T08:30:25.060Z,99422.75
2023-02-11T08:34:30.773Z,99419.16
2023-02-11T08:38:33.933Z,99414.53
2023-02-11T08:42:37.416Z,99421.22
2023-02-11T08:46:40.702Z,99423.84
2023-02-11T08:50:45.390Z,99430.88
2023-02-11T08:54:48.671Z,99426.22
2023-02-11T08:58:52.451Z,99429.31
2023-02-11T09:02:55.829Z,99420.66
2023-02-11T09:07:00.174Z,99410.44
2023-02-11T09:11:04.091Z,99414.16
2023-02-11T09:15:07.769Z,99405.81
2023-02-11T09:19:11.720Z,99408.31
2023-02-11T09:23:18.518Z,99418.03
2023-02-11T09:27:21.548Z,99432.75
2023-02-11T09:31:27.240Z,99439.66
2023-02-11T09:35:30.653Z,99439.56
2023-02-11T09:39:35.737Z,99441.16
2023-02-11T09:43:46.454Z,99433.91
2023-02-11T09:47:54.726Z,99428.03
2023-02-11T09:52:04.775Z,99433.28
2023-02-11T09:56:15.750Z,99430.94
2023-02-11T10:00:24.989Z,99436.94
2023-02-11T10:04:44.712Z,99408.53
2023-02-11T10:09:00.099Z,99411.34
2023-02-11T10:13:24.585Z,99421.16
2023-02-11T10:17:40.036Z,99419.53
2023-02-11T10:21:54.851Z,99423.06
2023-02-11T10:25:59.410Z,99412.19
2023-02-11T10:30:12.823Z,99409.09
2023-02-11T10:34:17.380Z,99403.75
2023-02-11T10:38:22.158Z,99413.75
2023-02-11T10:42:27.343Z,99413.28
2023-02-11T10:46:34.552Z,99394.81
2023-02-11T10:50:38.988Z,99404.75
2023-02-11T10:54:42.383Z,99397.38
2023-02-11T10:58:47.083Z,99397.00
2023-02-11T11:02:57.969Z,99398.13
2023-02-11T11:07:17.693Z,99382.25
2023-02-11T11:11:23.136Z,99381.94
2023-02-11T11:15:28.696Z,99382.56
2023-02-11T11:19:33.840Z,99383.88
2023-02-11T11:23:38.653Z,99378.47
2023-02-11T11:27:41.913Z,99375.16
2023-02-11T11:31:51.589Z,99364.78
2023-02-11T11:36:01.624Z,99367.56
2023-02-11T11:40:10.728Z,99350.66
2023-02-11T11:44:25.897Z,99350.19
2023-02-11T11:48:33.223Z,99347.28
2023-02-11T11:52:45.550Z,99344.38
2023-02-11T11:56:54.088Z,99331.97
2023-02-11T12:01:07.404Z,99314.41
2023-02-11T12:05:14.932Z,99312.31
2023-02-11T12:09:28.549Z,99287.53
2023-02-11T12:13:51.528Z,99290.31
2023-02-11T12:18:03.307Z,99287.44
2023-02-11T12:22:12.511Z,99272.44
2023-02-11T12:26:20.884Z,99269.75
2023-02-11T12:30:52.857Z,99278.31
2023-02-11T12:35:11.058Z,99269.41
2023-02-11T12:39:28.646Z,99259.78
2023-02-11T12:43:38.671Z,99243.22
2023-02-11T12:47:50.837Z,99227.38
2023-02-11T12:52:09.990Z,99237.34
2023-02-11T12:56:18.742Z,99236.75
2023-02-11T13:00:26.406Z,99236.75
2023-02-11T13:04:36.547Z,99249.81
2023-02-11T13:08:45.086Z,99234.91
2023-02-11T13:13:09.152Z,99226.38
2023-02-11T13:17:22.349Z,99233.84
2023-02-11T13:21:40.093Z,99232.81
2023-02-11T13:25:47.973Z,99238.59
2023-02-11T13:34:01.831Z,99249.34
2023-02-11T13:38:07.206Z,99241.34
2023-02-11T13:42:18.166Z,99257.28
2023-02-11T13:46:21.133Z,99253.56
2023-02-11T13:50:27.366Z,99255.63
2023-02-11T13:54:34.901Z,99271.56
2023-02-11T13:58:47.802Z,99275.25
2023-02-11T14:03:19.431Z,99266.59
2023-02-11T14:07:49.999Z,99262.50
2023-02-11T14:11:55.670Z,99261.22
2023-02-11T14:16:09.886Z,99269.41
2023-02-11T14:20:43.538Z,99263.28
2023-02-11T14:24:58.205Z,99264.31
2023-02-11T14:29:14.476Z,99274.78
2023-02-11T14:34:03.137Z,99260.31
2023-02-11T14:38:16.012Z,99251.28
2023-02-11T14:42:22.788Z,99247.97
2023-02-11T14:46:30.303Z,99248.16
2023-02-11T14:50:38.448Z,99251.38
2023-02-11T14:54:45.611Z,99239.38
2023-02-11T14:58:52.156Z,99249.44
2023-02-11T15:02:56.386Z,99247.38
2023-02-11T15:07:05.216Z,99245.44
2023-02-11T15:11:13.144Z,99252.38
2023-02-11T15:15:18.210Z,99243.59
2023-02-11T15:19:27.018Z,99241.09
2023-02-11T15:23:32.276Z,99246.28
2023-02-11T15:27:43.426Z,99247.00
2023-02-11T15:31:48.045Z,99248.13
2023-02-11T15:35:52.171Z,99237.13
2023-02-11T15:39:57.024Z,99229.47
2023-02-11T15:44:00.433Z,99233.06
2023-02-11T15:48:11.222Z,99222.91
2023-02-11T15:52:16.048Z,99222.28
2023-02-11T15:56:25.829Z,99221.63
2023-02-11T16:00:38.748Z,99236.53
2023-02-11T16:04:51.951Z,99258.22
2023-02-11T16:09:04.369Z,99258.44
2023-02-11T16:13:21.193Z,99266.50
2023-02-11T16:17:28.940Z,99272.66
2023-02-11T16:21:39.598Z,99248.84
2023-02-11T16:25:43.822Z,99246.00
2023-02-11T16:29:48.959Z,99252.44
2023-02-11T16:33:52.200Z,99271.66
2023-02-11T16:37:56.768Z,99267.59
2023-02-11T16:42:00.432Z,99256.69
2023-02-11T16:46:03.392Z,99255.19
2023-02-11T16:50:10.838Z,99267.94
2023-02-11T16:54:17.811Z,99262.41
2023-02-11T16:58:21.170Z,99274.91
2023-02-11T17:02:27.259Z,99272.69
2023-02-11T17:06:30.483Z,99273.06
2023-02-11T17:10:35.905Z,99258.72
2023-02-11T17:14:39.114Z,99275.25
2023-02-11T17:18:42.269Z,99263.34
2023-02-11T17:22:45.423Z,99268.03
2023-02-11T17:26:51.347Z,99280.75
2023-02-11T17:30:54.592Z,99266.69
2023-02-11T17:34:58.135Z,99291.56
2023-02-11T17:39:02.079Z,99308.97
2023-02-11T17:43:06.656Z,99304.81
2023-02-11T17:47:10.002Z,99314.38
2023-02-11T17:51:24.159Z,99310.06
2023-02-11T17:55:27.408Z,99320.47
2023-02-11T17:59:35.653Z,99330.13
2023-02-11T18:03:39.248Z,99326.81
2023-02-11T18:07:42.443Z,99320.97
2023-02-11T18:11:45.567Z,99315.00
2023-02-11T18:15:50.520Z,99319.41
2023-02-11T18:19:57.136Z,99319.50
2023-02-11T18:24:05.994Z,99322.06
2023-02-11T18:28:10.146Z,99326.38
2023-02-11T18:32:16.612Z,99321.22
2023-02-11T18:36:20.272Z,99315.34
2023-02-11T18:40:23.752Z,99321.81
2023-02-11T18:44:27.199Z,99313.63
2023-02-11T18:48:32.367Z,99327.00
2023-02-11T18:52:36.916Z,99327.91
2023-02-11T18:56:40.434Z,99328.88
2023-02-11T19:00:47.164Z,99330.66
2023-02-11T19:04:51.875Z,99335.66
2023-02-11T19:08:58.274Z,99348.38
2023-02-11T19:13:02.707Z,99342.97
2023-02-11T19:17:08.368Z,99338.47
2023-02-11T19:21:14.092Z,99339.97
2023-02-11T19:25:17.442Z,99350.38
2023-02-11T19:29:21.224Z,99345.13
2023-02-11T19:33:24.414Z,99339.97
2023-02-11T19:37:29.171Z,99342.38
2023-02-11T19:41:33.559Z,99360.28
2023-02-11T19:45:39.336Z,99361.63
2023-02-11T19:49:42.668Z,99357.13
2023-02-11T19:53:47.981Z,99362.69
2023-02-11T19:57:51.366Z,99371.00
2023-02-11T20:01:54.383Z,99363.75
2023-02-11T20:05:58.037Z,99361.91
2023-02-11T20:10:02.385Z,99361.91
2023-02-11T20:14:07.056Z,99360.41
2023-02-11T20:18:10.337Z,99373.78
2023-02-11T20:22:13.360Z,99374.19
2023-02-11T20:26:20.244Z,99365.78
2023-02-11T20:30:23.816Z,99365.28
2023-02-11T20:34:27.153Z,99363.81
2023-02-11T20:38:30.502Z,99355.47
2023-02-11T20:42:35.289Z,99355.72
2023-02-11T20:46:41.935Z,99355.97
2023-02-11T20:50:48.382Z,99350.16
2023-02-11T20:54:51.532Z,99345.06
2023-02-11T20:58:58.577Z,99345.06
2023-02-11T21:03:01.514Z,99346.63
2023-02-11T21:07:04.757Z,99344.72
2023-02-11T21:11:09.705Z,99347.16
2023-02-11T21:15:14.406Z,99354.63
2023-02-11T21:19:18.273Z,99351.94
2023-02-11T21:23:22.219Z,99355.22
2023-02-11T21:27:31.121Z,99355.13
2023-02-11T21:31:37.081Z,99358.28
2023-02-11T21:35:40.093Z,99371.03
2023-02-11T21:39:44.143Z,99371.88
2023-02-11T21:43:47.461Z,99371.94
2023-02-11T21:47:53.085Z,99371.28
2023-02-11T21:51:56.811Z,99364.69
2023-02-11T21:56:07.921Z,99366.56
2023-02-11T22:00:13.298Z,99373.63
2023-02-11T22:04:18.485Z,99386.47
2023-02-11T22:08:22.107Z,99403.69
2023-02-11T22:12:26.313Z,99415.66
2023-02-11T22:16:30.516Z,99405.22
2023-02-11T22:20:35.375Z,99402.47
2023-02-11T22:24:38.661Z,99408.38
2023-02-11T22:28:43.047Z,99408.28
2023-02-11T22:32:47.476Z,99414.31
2023-02-11T22:36:52.654Z,99406.63
2023-02-11T22:40:55.917Z,99405.88
2023-02-11T22:44:59.295Z,99404.31
2023-02-11T22:49:02.587Z,99396.78
2023-02-11T22:53:07.116Z,99399.63
2023-02-11T22:57:10.153Z,99393.81
2023-02-11T23:01:14.323Z,99384.53
2023-02-11T23:05:17.906Z,99400.03
2023-02-11T23:09:23.013Z,99396.41
2023-02-11T23:13:26.300Z,99399.63
2023-02-11T23:17:30.536Z,99403.91
2023-02-11T23:21:36.700Z,99401.81
2023-02-11T23:25:45.018Z,99411.81
2023-02-11T23:29:48.532Z,99417.38
2023-02-11T23:33:55.207Z,99414.28
2023-02-11T23:37:58.338Z,99414.69
2023-02-11T23:42:02.891Z,99416.75
2023-02-11T23:46:07.251Z,99412.91
2023-02-11T23:50:14.189Z,99421.91
2023-02-11T23:54:17.471Z,99417.41
2023-02-11T23:58:22.439Z,99415.38
